Time;durP1;ratioP1;P1;durP2;ratioP2;P2;SDS_P1;SDS_P2;PMS_P1;PMS_P2;Temp;Humidity;BMP_temperature;BMP_pressure;BME280_temperature;BME280_humidity;BME280_pressure;Samples;Min_cycle;Max_cycle;Signal;HPM_P1;HPM_P2
2021/12/01 00:01:09;;;;;;;66.05;36.63;;;;;;;8.49;100.00;99573.00;5065079;28;20040;-84
2021/12/01 00:03:37;;;;;;;61.35;34.72;;;;;;;8.51;100.00;99565.63;5060052;28;20109;-84
2021/12/01 00:06:03;;;;;;;64.80;37.75;;;;;;;8.51;100.00;99553.06;5044327;28;20538;-84
2021/12/01 00:08:29;;;;;;;61.58;36.40;;;;;;;8.54;100.00;99552.72;5064402;28;20045;-84
2021/12/01 00:10:54;;;;;;;64.53;34.42;;;;;;;8.56;100.00;99544.53;5032453;28;20124;-83
2021/12/01 00:13:22;;;;;;;59.70;32.10;;;;;;;8.57;100.00;99516.75;5046400;28;20408;-84
2021/12/01 00:15:50;;;;;;;60.65;34.20;;;;;;;8.58;100.00;99531.81;5059196;28;20125;-84
2021/12/01 00:18:17;;;;;;;56.92;34.15;;;;;;;8.59;100.00;99528.13;5047343;28;20603;-84
2021/12/01 00:20:45;;;;;;;47.53;27.25;;;;;;;8.62;100.00;99541.13;5045444;28;20048;-84
2021/12/01 00:23:13;;;;;;;50.80;27.48;;;;;;;8.64;100.00;99520.38;5068301;28;20032;-84
2021/12/01 00:25:42;;;;;;;42.15;24.50;;;;;;;8.63;100.00;99521.41;5049693;28;20048;-84
2021/12/01 00:28:09;;;;;;;41.08;21.50;;;;;;;8.66;100.00;99505.00;5067820;28;20048;-84
2021/12/01 00:30:35;;;;;;;37.50;21.95;;;;;;;8.70;100.00;99495.56;5029727;28;20116;-84
2021/12/01 00:33:01;;;;;;;36.13;20.58;;;;;;;8.71;100.00;99489.19;5050171;28;20678;-83
2021/12/01 00:35:27;;;;;;;33.63;23.10;;;;;;;8.73;100.00;99494.38;5049915;28;20044;-84
2021/12/01 00:37:53;;;;;;;32.53;19.88;;;;;;;8.76;100.00;99483.31;5050484;28;20036;-83
2021/12/01 00:40:20;;;;;;;33.63;19.73;;;;;;;8.76;100.00;99481.47;5041996;28;20110;-83
2021/12/01 00:42:47;;;;;;;31.50;18.60;;;;;;;8.79;100.00;99482.94;5063847;28;20626;-84
2021/12/01 00:45:20;;;;;;;31.25;19.73;;;;;;;8.79;100.00;99462.38;5045010;28;20047;-84
2021/12/01 00:47:49;;;;;;;28.77;19.02;;;;;;;8.81;100.00;99460.34;5034761;28;20078;-84
2021/12/01 00:50:24;;;;;;;33.47;21.05;;;;;;;8.82;100.00;99456.66;5050637;28;20036;-84
2021/12/01 00:52:53;;;;;;;32.78;19.17;;;;;;;8.82;100.00;99443.28;5033385;28;20128;-84
2021/12/01 00:55:19;;;;;;;26.05;16.35;;;;;;;8.85;100.00;99422.53;5051423;28;20036;-84
2021/12/01 00:57:51;;;;;;;24.40;16.80;;;;;;;8.87;100.00;99417.81;5051213;28;20039;-84
2021/12/01 01:00:18;;;;;;;29.63;19.45;;;;;;;8.87;100.00;99417.81;5064201;28;20098;-84
2021/12/01 01:02:51;;;;;;;29.60;17.40;;;;;;;8.88;100.00;99411.44;5029844;28;20067;-84
2021/12/01 01:05:21;;;;;;;24.17;15.70;;;;;;;8.89;100.00;99434.50;5050206;28;20058;-83
2021/12/01 01:07:48;;;;;;;26.30;17.25;;;;;;;8.89;100.00;99413.94;5047210;28;20131;-84
2021/12/01 01:10:45;;;;;;;22.27;15.80;;;;;;;8.89;100.00;99403.25;5062359;28;20033;-84
2021/12/01 01:18:47;;;;;;;18.02;12.15;;;;;;;8.83;100.00;99393.28;5049484;28;20052;-84
2021/12/01 01:21:13;;;;;;;15.95;9.73;;;;;;;8.82;100.00;99365.69;5067466;28;20044;-84
2021/12/01 01:23:40;;;;;;;15.02;9.05;;;;;;;8.83;100.00;99374.53;5050337;28;20093;-84
2021/12/01 01:26:12;;;;;;;16.20;9.23;;;;;;;8.81;100.00;99364.06;5063592;28;20045;-84
2021/12/01 01:28:38;;;;;;;12.88;9.43;;;;;;;8.80;100.00;99365.06;5049390;28;20058;-84
2021/12/01 01:31:15;;;;;;;11.50;8.27;;;;;;;8.78;100.00;99369.78;5049981;28;20044;-85
2021/12/01 01:33:42;;;;;;;11.18;7.40;;;;;;;8.76;100.00;99347.72;5062670;28;20037;-84
2021/12/01 01:36:09;;;;;;;10.93;6.97;;;;;;;8.75;100.00;99335.38;5055867;28;20063;-85
2021/12/01 01:38:35;;;;;;;11.55;6.55;;;;;;;8.73;100.00;99342.75;5044657;28;20516;-84
2021/12/01 01:41:06;;;;;;;7.18;4.45;;;;;;;8.70;100.00;99336.97;5031149;28;20536;-84
2021/12/01 01:43:33;;;;;;;11.15;6.38;;;;;;;8.70;100.00;99337.78;5054449;28;20048;-84
2021/12/01 01:45:59;;;;;;;8.32;5.82;;;;;;;8.70;100.00;99328.94;5064987;28;20048;-84
2021/12/01 01:48:30;;;;;;;8.95;6.35;;;;;;;8.68;100.00;99322.94;5064979;28;20050;-84
2021/12/01 01:51:01;;;;;;;8.02;5.60;;;;;;;8.65;100.00;99310.75;5048337;28;20035;-85
2021/12/01 01:53:27;;;;;;;8.32;5.65;;;;;;;8.64;100.00;99319.81;5050096;28;20114;-85
2021/12/01 01:56:03;;;;;;;9.43;5.22;;;;;;;8.63;100.00;99315.50;5062381;28;20060;-85
2021/12/01 01:58:29;;;;;;;9.20;6.47;;;;;;;8.63;100.00;99295.91;5039117;28;20036;-84
2021/12/01 02:01:07;;;;;;;7.60;5.20;;;;;;;8.60;100.00;99291.78;5042048;28;20043;-85
2021/12/01 02:03:43;;;;;;;7.57;4.95;;;;;;;8.59;100.00;99274.91;5050806;28;20435;-84
2021/12/01 02:06:11;;;;;;;8.32;5.70;;;;;;;8.61;100.00;99285.44;5066458;28;20044;-84
2021/12/01 02:08:40;;;;;;;8.27;5.40;;;;;;;8.59;100.00;99280.25;5049334;28;20560;-84
2021/12/01 02:11:11;;;;;;;6.78;4.65;;;;;;;8.59;100.00;99274.91;5041790;28;20127;-84
2021/12/01 02:13:40;;;;;;;7.93;5.28;;;;;;;8.58;100.00;99261.75;5047254;28;20048;-84
2021/12/01 02:16:15;;;;;;;7.22;5.03;;;;;;;8.57;100.00;99262.75;5056732;28;20489;-84
2021/12/01 02:18:52;;;;;;;7.25;4.93;;;;;;;8.55;100.00;99262.13;5044718;28;20040;-84
2021/12/01 02:21:29;;;;;;;8.48;6.07;;;;;;;8.55;100.00;99251.44;5046547;28;20033;-84
2021/12/01 02:24:08;;;;;;;7.68;5.68;;;;;;;8.53;100.00;99243.59;5065666;28;20036;-84
2021/12/01 02:26:38;;;;;;;8.80;5.28;;;;;;;8.52;100.00;99241.13;5045068;28;20048;-84
2021/12/01 02:29:15;;;;;;;8.70;5.60;;;;;;;8.49;100.00;99246.84;5061445;28;20036;-85
2021/12/01 02:31:43;;;;;;;7.57;4.88;;;;;;;8.47;100.00;99219.47;5046954;28;20041;-84
2021/12/01 02:34:19;;;;;;;9.57;5.63;;;;;;;8.46;100.00;99209.75;5038831;28;20136;-84
2021/12/01 02:36:54;;;;;;;9.70;6.20;;;;;;;8.45;100.00;99208.13;5047357;28;20542;-84
2021/12/01 02:39:27;;;;;;;7.47;4.82;;;;;;;8.42;100.00;99200.47;5051596;28;20127;-83
2021/12/01 02:42:05;;;;;;;8.68;5.75;;;;;;;8.43;100.00;99191.44;5047409;28;20036;-84
2021/12/01 02:44:32;;;;;;;9.40;5.63;;;;;;;8.41;100.00;99201.50;5047686;28;22166;-84
2021/12/01 02:47:00;;;;;;;9.32;5.30;;;;;;;8.40;100.00;99168.59;5066064;28;20041;-84
2021/12/01 02:49:28;;;;;;;9.90;6.20;;;;;;;8.39;100.00;99166.94;5044932;28;20051;-84
2021/12/01 02:51:55;;;;;;;10.23;7.90;;;;;;;8.40;100.00;99175.78;5059557;28;20052;-84
2021/12/01 02:54:24;;;;;;;10.50;7.35;;;;;;;8.41;100.00;99158.75;5081915;28;20081;-84
2021/12/01 02:56:52;;;;;;;11.35;8.40;;;;;;;8.39;100.00;99160.75;5032512;28;20110;-83
2021/12/01 02:59:18;;;;;;;10.18;6.40;;;;;;;8.35;100.00;99158.44;5043894;28;20044;-84
2021/12/01 03:01:47;;;;;;;10.30;6.72;;;;;;;8.33;100.00;99139.09;5061941;28;20600;-84
2021/12/01 03:04:16;;;;;;;11.98;9.00;;;;;;;8.34;100.00;99147.94;5065573;28;20036;-84
2021/12/01 03:06:48;;;;;;;12.68;8.52;;;;;;;8.33;100.00;99151.63;5043017;28;20163;-84
2021/12/01 03:09:15;;;;;;;13.23;9.30;;;;;;;8.32;100.00;99134.75;5031771;28;20102;-84
2021/12/01 03:11:43;;;;;;;11.38;7.70;;;;;;;8.32;100.00;99152.66;5065816;28;20458;-84
2021/12/01 03:14:16;;;;;;;12.02;7.57;;;;;;;8.31;100.00;99132.28;5044701;28;20047;-84
2021/12/01 03:16:42;;;;;;;11.57;7.97;;;;;;;8.30;100.00;99126.09;5029267;28;20401;-84
2021/12/01 03:19:09;;;;;;;11.52;8.32;;;;;;;8.29;100.00;99111.09;5044866;28;20082;-84
2021/12/01 03:21:37;;;;;;;12.23;9.00;;;;;;;8.30;100.00;99110.06;5052786;28;20052;-84
2021/12/01 03:24:04;;;;;;;13.15;8.93;;;;;;;8.27;100.00;99107.78;5063642;28;20029;-84
2021/12/01 03:26:37;;;;;;;12.07;8.13;;;;;;;8.27;100.00;99115.78;5064910;28;20067;-84
2021/12/01 03:29:15;;;;;;;11.93;9.05;;;;;;;8.27;100.00;99120.31;5047428;28;20036;-84
2021/12/01 03:31:42;;;;;;;11.77;9.15;;;;;;;8.27;100.00;99102.44;5064894;28;20051;-83
2021/12/01 03:34:10;;;;;;;12.15;8.38;;;;;;;8.25;100.00;99112.47;5042728;28;20532;-84
2021/12/01 03:36:36;;;;;;;10.40;7.85;;;;;;;8.24;100.00;99078.75;5059365;28;20405;-84
2021/12/01 03:39:04;;;;;;;11.95;9.07;;;;;;;8.25;100.00;99079.59;5031127;28;20105;-83
2021/12/01 03:41:30;;;;;;;11.43;8.50;;;;;;;8.23;100.00;99074.44;5047011;28;20490;-84
2021/12/01 03:43:57;;;;;;;12.95;8.38;;;;;;;8.21;100.00;99033.72;5046508;28;20052;-83
2021/12/01 03:46:23;;;;;;;12.25;7.55;;;;;;;8.20;100.00;99037.41;5036561;28;20040;-84
2021/12/01 03:48:49;;;;;;;10.43;7.95;;;;;;;8.21;100.00;99086.34;5069251;28;20509;-83
2021/12/01 03:51:14;;;;;;;9.32;6.95;;;;;;;8.20;100.00;99049.94;5044942;28;20090;-84
2021/12/01 03:53:40;;;;;;;9.07;6.93;;;;;;;8.17;100.00;99035.13;5046561;28;20119;-84
2021/12/01 03:56:12;;;;;;;9.63;7.93;;;;;;;8.18;100.00;99035.97;5048192;28;20044;-84
2021/12/01 03:58:38;;;;;;;9.00;7.25;;;;;;;8.15;100.00;99031.81;5017070;28;20044;-85
2021/12/01 04:01:05;;;;;;;8.15;5.82;;;;;;;8.13;100.00;99033.84;5049321;28;20041;-85
2021/12/01 04:03:31;;;;;;;7.88;6.70;;;;;;;8.12;100.00;99021.53;5065212;28;20169;-83
2021/12/01 04:05:58;;;;;;;8.20;6.35;;;;;;;8.10;100.00;99008.34;5032884;28;20532;-84
2021/12/01 04:08:24;;;;;;;7.47;5.88;;;;;;;8.10;100.00;98996.81;5034380;28;20060;-84
2021/12/01 04:10:52;;;;;;;8.50;6.93;;;;;;;8.09;100.00;99012.03;5069605;28;20506;-85
2021/12/01 04:13:17;;;;;;;8.40;6.68;;;;;;;8.07;100.00;99003.38;5065703;28;20044;-84
2021/12/01 04:15:44;;;;;;;9.70;6.38;;;;;;;8.05;100.00;98999.25;5063724;28;20079;-84
2021/12/01 04:18:10;;;;;;;7.80;6.70;;;;;;;8.03;100.00;98990.63;5065000;28;20048;-84
2021/12/01 04:20:37;;;;;;;8.13;6.30;;;;;;;8.01;100.00;99006.00;5066833;28;20032;-84
2021/12/01 04:23:05;;;;;;;8.10;5.65;;;;;;;7.98;100.00;98998.38;5050130;28;20036;-84
2021/12/01 04:25:32;;;;;;;7.10;5.65;;;;;;;7.97;100.00;98992.19;5048346;28;20055;-83
2021/12/01 04:28:00;;;;;;;7.15;5.55;;;;;;;7.93;100.00;99027.50;5046004;28;20037;-84
2021/12/01 04:30:27;;;;;;;7.45;6.05;;;;;;;7.94;100.00;98978.38;5034793;28;20059;-84
2021/12/01 04:32:55;;;;;;;8.18;5.78;;;;;;;7.91;100.00;98980.44;5050575;28;20115;-84
2021/12/01 04:35:23;;;;;;;7.57;6.10;;;;;;;7.89;100.00;98979.78;5063857;28;20052;-85
2021/12/01 04:37:52;;;;;;;8.15;5.32;;;;;;;7.88;100.00;98969.28;5050316;28;20044;-84
2021/12/01 04:40:18;;;;;;;;;;;;;;;7.84;100.00;98952.81;5042299;28;20094;-83
2021/12/01 04:42:46;;;;;;;12.95;6.32;;;;;;;7.76;100.00;98944.94;5069659;28;20342;-84
2021/12/01 04:45:14;;;;;;;10.57;7.07;;;;;;;7.76;100.00;98939.59;5045699;28;20569;-84
2021/12/01 04:47:51;;;;;;;8.18;6.22;;;;;;;7.76;100.00;98918.25;5048194;28;20049;-83
2021/12/01 04:50:24;;;;;;;7.15;5.93;;;;;;;7.78;100.00;98921.56;5014029;28;20083;-84
2021/12/01 04:52:51;;;;;;;9.55;6.07;;;;;;;7.77;100.00;98914.56;5060793;28;20127;-84
2021/12/01 04:55:21;;;;;;;8.75;6.15;;;;;;;7.78;100.00;98912.72;5058702;28;20572;-84
2021/12/01 04:57:47;;;;;;;7.55;6.10;;;;;;;7.80;100.00;98905.34;5061143;28;20686;-83
2021/12/01 05:00:19;;;;;;;8.35;6.10;;;;;;;7.77;100.00;98885.19;5044954;28;20043;-84
2021/12/01 05:02:45;;;;;;;8.13;5.78;;;;;;;7.77;100.00;98898.56;5047880;28;20098;-84
2021/12/01 05:05:10;;;;;;;7.57;6.25;;;;;;;7.79;100.00;98880.47;5049956;28;20048;-83
2021/12/01 05:07:36;;;;;;;10.90;6.38;;;;;;;7.79;100.00;98880.47;5061366;28;20551;-83
2021/12/01 05:10:02;;;;;;;7.50;5.85;;;;;;;7.77;100.00;98869.19;5035684;28;20036;-83
2021/12/01 05:12:28;;;;;;;7.55;6.07;;;;;;;7.77;100.00;98873.66;5054541;28;20048;-84
2021/12/01 05:14:53;;;;;;;6.45;5.38;;;;;;;7.72;100.00;98854.75;5067366;28;20090;-83
2021/12/01 05:17:20;;;;;;;8.02;6.18;;;;;;;7.72;100.00;98844.06;5049995;28;20397;-84
2021/12/01 05:19:46;;;;;;;6.95;5.32;;;;;;;7.75;100.00;98849.03;5062244;28;20049;-85
2021/12/01 05:22:13;;;;;;;8.45;6.22;;;;;;;7.74;100.00;98831.34;5032171;28;20041;-84
2021/12/01 05:24:45;;;;;;;7.80;5.28;;;;;;;7.71;100.00;98810.38;5045688;28;20040;-84
2021/12/01 05:27:10;;;;;;;8.18;4.90;;;;;;;7.68;100.00;98814.25;5068782;28;20043;-84
2021/12/01 05:29:39;;;;;;;7.70;5.10;;;;;;;7.67;100.00;98808.09;5045973;28;20036;-84
2021/12/01 05:32:05;;;;;;;8.40;5.40;;;;;;;7.64;100.00;98794.31;5037765;28;20057;-85
2021/12/01 05:34:32;;;;;;;7.53;5.70;;;;;;;7.64;100.00;98795.13;5052591;28;20071;-83
2021/12/01 05:37:00;;;;;;;7.40;6.05;;;;;;;7.60;100.00;98793.06;5034666;28;20047;-84
2021/12/01 05:39:34;;;;;;;8.17;6.60;;;;;;;7.59;100.00;98783.38;5043756;28;20048;-84
2021/12/01 05:42:01;;;;;;;10.73;7.40;;;;;;;7.56;100.00;98765.09;5039582;28;20392;-84
2021/12/01 05:44:27;;;;;;;9.90;7.60;;;;;;;7.49;100.00;98767.72;5028246;28;20787;-84
2021/12/01 05:46:52;;;;;;;9.13;7.10;;;;;;;7.47;100.00;98762.56;5048477;28;20559;-83
2021/12/01 05:49:18;;;;;;;10.95;8.38;;;;;;;7.46;100.00;98760.91;5063906;28;20127;-84
2021/12/01 05:51:44;;;;;;;10.25;7.95;;;;;;;7.46;100.00;98766.25;5028000;28;20504;-84
2021/12/01 05:54:11;;;;;;;10.60;7.60;;;;;;;7.43;100.00;98747.16;5061532;28;20048;-84
2021/12/01 05:56:37;;;;;;;12.40;8.82;;;;;;;7.43;100.00;98744.47;5045177;28;20147;-85
2021/12/01 05:59:02;;;;;;;11.65;8.30;;;;;;;7.39;100.00;98749.38;5044163;28;20335;-84
2021/12/01 06:01:28;;;;;;;11.40;7.68;;;;;;;7.35;100.00;98755.28;5062575;28;20040;-84
2021/12/01 06:03:54;;;;;;;12.77;8.10;;;;;;;7.34;100.00;98746.47;5063830;28;20040;-84
2021/12/01 06:06:20;;;;;;;13.30;8.60;;;;;;;7.34;100.00;98729.63;5040777;28;20045;-84
2021/12/01 06:08:46;;;;;;;11.98;8.60;;;;;;;7.30;100.00;98707.00;5043842;28;20041;-84
2021/12/01 06:11:13;;;;;;;11.60;8.50;;;;;;;7.32;100.00;98729.81;5035971;28;20063;-84
2021/12/01 06:13:40;;;;;;;10.95;7.50;;;;;;;7.29;100.00;98711.53;5044614;28;20049;-83
2021/12/01 06:16:07;;;;;;;11.07;7.90;;;;;;;7.27;100.00;98729.56;5044584;28;20037;-84
2021/12/01 06:18:34;;;;;;;10.85;8.50;;;;;;;7.27;100.00;98678.88;5039020;28;20044;-85
2021/12/01 06:21:03;;;;;;;10.32;7.18;;;;;;;7.27;100.00;98713.56;5062007;28;20086;-83
2021/12/01 06:23:28;;;;;;;10.88;7.43;;;;;;;7.24;100.00;98700.59;5038510;28;20576;-84
2021/12/01 06:25:54;;;;;;;9.68;8.05;;;;;;;7.25;100.00;98678.25;5040922;28;20045;-84
2021/12/01 06:28:20;;;;;;;11.45;7.53;;;;;;;7.26;100.00;98693.25;5040380;28;20041;-84
2021/12/01 06:30:45;;;;;;;8.63;6.15;;;;;;;7.22;100.00;98689.28;5042600;28;20393;-84
2021/12/01 06:33:12;;;;;;;9.10;7.30;;;;;;;7.22;100.00;98679.47;5041504;28;20050;-84
2021/12/01 06:35:37;;;;;;;11.52;8.10;;;;;;;7.23;100.00;98674.94;5024866;28;20055;-83
2021/12/01 06:38:04;;;;;;;9.05;6.65;;;;;;;7.22;100.00;98679.47;5038475;28;20040;-83
2021/12/01 06:40:30;;;;;;;9.48;6.80;;;;;;;7.20;100.00;98649.50;5046019;28;20039;-83
2021/12/01 06:42:57;;;;;;;10.13;6.65;;;;;;;7.21;100.00;98652.97;5043104;28;20380;-83
2021/12/01 06:45:24;;;;;;;8.77;6.75;;;;;;;7.21;100.00;98655.63;5060041;28;20148;-83
2021/12/01 06:47:50;;;;;;;7.82;5.05;;;;;;;7.18;100.00;98648.84;5028972;28;20033;-83
2021/12/01 06:50:16;;;;;;;7.40;5.38;;;;;;;7.16;100.00;98623.38;5040984;28;20052;-84
2021/12/01 06:52:41;;;;;;;6.85;5.47;;;;;;;7.16;100.00;98632.22;5044783;28;20554;-83
2021/12/01 06:55:08;;;;;;;6.38;4.50;;;;;;;7.15;100.00;98640.41;5035482;28;20148;-84
2021/12/01 06:57:34;;;;;;;7.57;4.72;;;;;;;7.16;100.00;98639.38;5055737;28;20041;-87
2021/12/01 07:00:00;;;;;;;6.88;5.32;;;;;;;7.17;100.00;98636.53;5055147;28;20068;-86
2021/12/01 07:02:27;;;;;;;5.57;4.63;;;;;;;7.16;100.00;98632.22;5059998;28;20119;-87
2021/12/01 07:04:53;;;;;;;7.55;4.97;;;;;;;7.17;100.00;98614.38;5058951;28;20039;-86
2021/12/01 07:07:19;;;;;;;5.97;4.80;;;;;;;7.15;100.00;98608.41;5044210;28;20048;-86
2021/12/01 07:09:49;;;;;;;7.50;4.93;;;;;;;7.17;100.00;98622.38;5045504;28;20037;-87
2021/12/01 07:12:14;;;;;;;5.93;4.35;;;;;;;7.15;100.00;98621.75;5042946;28;20067;-87
2021/12/01 07:14:41;;;;;;;6.10;4.60;;;;;;;7.14;100.00;98590.78;5062002;28;20043;-86
2021/12/01 07:17:07;;;;;;;6.70;5.05;;;;;;;7.14;100.00;98596.09;5052849;28;20098;-87
2021/12/01 07:19:32;;;;;;;8.68;5.38;;;;;;;7.17;100.00;98604.53;5030048;28;20044;-87
2021/12/01 07:22:00;;;;;;;6.80;5.35;;;;;;;7.17;100.00;98601.88;5039296;28;20619;-88
2021/12/01 07:24:25;;;;;;;7.80;5.57;;;;;;;7.19;100.00;98609.66;5045239;28;20052;-87
2021/12/01 07:26:52;;;;;;;6.35;4.60;;;;;;;7.17;100.00;98601.03;5026877;28;20060;-87
2021/12/01 07:29:19;;;;;;;6.53;4.90;;;;;;;7.18;100.00;98602.69;5040107;28;20409;-86
2021/12/01 07:31:46;;;;;;;7.60;6.10;;;;;;;7.20;100.00;98577.47;5045758;28;20521;-86
2021/12/01 07:34:12;;;;;;;7.82;5.97;;;;;;;7.21;100.00;98576.44;5031188;28;20102;-87
2021/12/01 07:36:39;;;;;;;5.60;3.88;;;;;;;7.19;100.00;98574.97;5011838;28;20036;-87
2021/12/01 07:39:04;;;;;;;6.63;5.18;;;;;;;7.20;100.00;98573.97;5044389;28;20044;-87
2021/12/01 07:41:30;;;;;;;6.25;4.07;;;;;;;7.20;100.00;98569.47;5046044;28;20396;-87
2021/12/01 07:43:56;;;;;;;5.55;4.53;;;;;;;7.20;100.00;98573.97;5057129;28;20040;-87
2021/12/01 07:46:22;;;;;;;5.97;4.03;;;;;;;7.22;100.00;98555.91;5060638;28;20041;-87
2021/12/01 07:48:48;;;;;;;5.40;3.80;;;;;;;7.23;100.00;98561.06;5045509;28;20456;-86
2021/12/01 07:51:14;;;;;;;5.18;4.28;;;;;;;7.26;100.00;98556.34;5062364;28;20082;-87
2021/12/01 07:53:40;;;;;;;6.40;4.88;;;;;;;7.28;100.00;98559.63;5044648;28;20045;-88
2021/12/01 07:56:06;;;;;;;5.13;3.65;;;;;;;7.28;100.00;98549.81;5057527;28;20493;-87
2021/12/01 07:58:33;;;;;;;6.72;4.30;;;;;;;7.32;100.00;98553.72;5044263;28;20055;-86
2021/12/01 08:00:59;;;;;;;7.60;4.90;;;;;;;7.32;100.00;98548.38;5044628;28;20397;-86
2021/12/01 08:03:25;;;;;;;6.07;4.70;;;;;;;7.32;100.00;98535.03;5060423;28;20079;-86
2021/12/01 08:05:54;;;;;;;7.72;4.22;;;;;;;7.30;100.00;98528.25;5028715;28;20132;-86
2021/12/01 08:08:19;;;;;;;6.90;3.92;;;;;;;7.32;100.00;98526.22;5041552;28;20051;-87
2021/12/01 08:10:46;;;;;;;5.30;3.20;;;;;;;7.32;100.00;98521.69;5060416;28;20044;-87
2021/12/01 08:13:12;;;;;;;5.30;3.58;;;;;;;7.33;100.00;98551.88;5037283;28;20098;-87
2021/12/01 08:15:45;;;;;;;5.63;3.50;;;;;;;7.34;100.00;98526.84;5053214;28;20389;-87
2021/12/01 08:18:10;;;;;;;4.43;3.60;;;;;;;7.34;100.00;98533.00;5035445;28;20052;-87
2021/12/01 08:20:45;;;;;;;5.15;3.92;;;;;;;7.35;100.00;98507.97;5032712;28;20433;-88
2021/12/01 08:23:10;;;;;;;5.65;4.68;;;;;;;7.38;100.00;98517.41;5058413;28;20064;-87
2021/12/01 08:25:37;;;;;;;4.60;3.47;;;;;;;7.37;100.00;98513.13;5045336;28;20051;-87
2021/12/01 08:28:04;;;;;;;4.25;3.63;;;;;;;7.39;100.00;98514.56;5028464;28;20093;-86
2021/12/01 08:30:32;;;;;;;6.75;3.97;;;;;;;7.42;100.00;98486.63;5044958;28;20048;-87
2021/12/01 08:32:57;;;;;;;6.00;4.30;;;;;;;7.44;100.00;98484.59;5010730;28;20044;-87
2021/12/01 08:35:24;;;;;;;6.90;4.63;;;;;;;7.44;100.00;98482.75;5066206;28;20045;-86
2021/12/01 08:37:51;;;;;;;6.63;4.85;;;;;;;7.46;100.00;98462.03;5047628;28;20044;-88
2021/12/01 08:40:18;;;;;;;6.75;4.63;;;;;;;7.49;100.00;98476.00;5047791;28;20041;-87
2021/12/01 08:42:46;;;;;;;4.45;3.72;;;;;;;7.48;100.00;98472.50;5045912;28;20041;-87
2021/12/01 08:45:12;;;;;;;5.15;4.15;;;;;;;7.51;100.00;98458.78;5043747;28;20045;-87
2021/12/01 08:47:37;;;;;;;5.20;4.18;;;;;;;7.52;100.00;98416.88;5061500;28;20113;-87
2021/12/01 08:50:05;;;;;;;5.63;4.10;;;;;;;7.54;100.00;98473.53;5061762;28;20048;-86
2021/12/01 08:52:31;;;;;;;5.30;4.38;;;;;;;7.55;100.00;98465.34;5046050;28;20533;-86
2021/12/01 08:54:57;;;;;;;5.18;4.03;;;;;;;7.55;100.00;98469.84;5067756;28;20056;-87
2021/12/01 08:57:22;;;;;;;5.22;3.85;;;;;;;7.58;100.00;98469.44;5065188;28;20028;-86
2021/12/01 08:59:50;;;;;;;4.78;4.05;;;;;;;7.60;100.00;98478.09;5057135;28;20099;-87
2021/12/01 09:02:16;;;;;;;5.60;4.43;;;;;;;7.60;100.00;98478.91;5056328;28;20442;-87
2021/12/01 09:04:41;;;;;;;4.68;3.97;;;;;;;7.62;100.00;98470.69;5062689;28;20040;-86
2021/12/01 09:07:08;;;;;;;6.97;4.60;;;;;;;7.61;100.00;98477.06;5030801;28;20044;-87
2021/12/01 09:09:34;;;;;;;5.72;4.25;;;;;;;7.63;100.00;98467.00;5063251;28;20116;-86
2021/12/01 09:12:00;;;;;;;6.57;4.53;;;;;;;7.61;100.00;98469.03;5047028;28;20068;-86
2021/12/01 09:14:26;;;;;;;6.13;4.13;;;;;;;7.63;100.00;98467.00;5045617;28;20087;-87
2021/12/01 09:16:53;;;;;;;5.38;4.13;;;;;;;7.63;100.00;98459.00;5044470;28;20045;-86
2021/12/01 09:19:20;;;;;;;6.35;4.35;;;;;;;7.64;100.00;98448.09;5050248;28;20098;-86
2021/12/01 09:21:45;;;;;;;5.05;3.83;;;;;;;7.64;100.00;98448.09;5032096;28;20481;-87
2021/12/01 09:24:18;;;;;;;5.93;4.95;;;;;;;7.66;100.00;98435.38;5030509;28;20134;-87
2021/12/01 09:26:44;;;;;;;6.70;4.57;;;;;;;7.68;100.00;98446.69;5029074;28;20606;-87
2021/12/01 09:29:09;;;;;;;5.80;4.43;;;;;;;7.72;100.00;98441.75;5062412;28;20058;-88
2021/12/01 09:31:35;;;;;;;5.75;3.83;;;;;;;7.74;100.00;98454.88;5032452;28;20048;-87
2021/12/01 09:34:01;;;;;;;5.40;4.00;;;;;;;7.76;100.00;98448.31;5062155;28;20068;-86
2021/12/01 09:36:31;;;;;;;6.15;4.82;;;;;;;7.79;100.00;98407.88;5036061;28;20105;-87
2021/12/01 09:38:58;;;;;;;4.80;3.70;;;;;;;7.80;100.00;98409.53;5028937;28;20374;-87
2021/12/01 09:41:25;;;;;;;5.28;4.53;;;;;;;7.82;100.00;98423.47;5042886;28;20036;-86
2021/12/01 09:43:51;;;;;;;5.28;4.43;;;;;;;7.86;100.00;98434.59;5059606;28;20060;-87
2021/12/01 09:46:17;;;;;;;5.25;4.13;;;;;;;7.87;100.00;98426.38;5057655;28;20067;-87
2021/12/01 09:48:44;;;;;;;5.35;4.20;;;;;;;7.88;100.00;98417.34;5031513;28;20048;-86
2021/12/01 09:51:14;;;;;;;4.78;3.95;;;;;;;7.90;100.00;98431.28;5047957;28;20034;-87
2021/12/01 09:53:40;;;;;;;5.93;4.95;;;;;;;7.91;100.00;98426.78;5031197;28;20131;-87
2021/12/01 09:56:06;;;;;;;4.72;4.13;;;;;;;7.92;100.00;98412.41;5047096;28;20175;-87
2021/12/01 09:58:32;;;;;;;4.70;3.97;;;;;;;7.89;100.00;98424.31;5031616;28;20115;-86
2021/12/01 10:01:07;;;;;;;8.02;5.35;;;;;;;7.91;100.00;98411.59;5046861;28;20381;-87
2021/12/01 10:03:35;;;;;;;6.22;4.97;;;;;;;7.91;100.00;98398.25;5059784;28;20089;-87
2021/12/01 10:06:10;;;;;;;6.32;4.60;;;;;;;7.91;100.00;98411.59;5047531;28;20048;-86
2021/12/01 10:08:38;;;;;;;6.78;4.55;;;;;;;7.91;100.00;98390.22;5033246;28;20048;-86
2021/12/01 10:11:10;;;;;;;6.88;5.10;;;;;;;7.92;100.00;98407.06;5044423;28;20051;-87
2021/12/01 10:13:44;;;;;;;6.90;5.22;;;;;;;7.93;100.00;98434.59;5057447;28;20033;-87
2021/12/01 10:16:12;;;;;;;6.30;4.28;;;;;;;7.93;100.00;98407.88;5044676;28;20186;-87
2021/12/01 10:18:49;;;;;;;5.72;3.28;;;;;;;7.89;100.00;98429.66;5074586;28;20125;-86
2021/12/01 10:21:23;;;;;;;4.97;3.55;;;;;;;7.94;100.00;98425.53;5060428;28;20048;-87
2021/12/01 10:23:57;;;;;;;5.93;3.38;;;;;;;7.94;100.00;98441.56;5063368;28;20036;-87
2021/12/01 10:26:24;;;;;;;6.55;3.10;;;;;;;7.91;100.00;98426.78;5028067;28;20083;-87
2021/12/01 10:28:56;;;;;;;5.60;3.17;;;;;;;7.95;100.00;98424.53;5044474;28;20548;-87
2021/12/01 10:31:35;;;;;;;6.07;3.55;;;;;;;7.95;100.00;98411.19;5044970;28;20067;-88
2021/12/01 10:34:20;;;;;;;4.75;2.95;;;;;;;7.93;100.00;98421.25;5027499;28;20133;-87
2021/12/01 10:36:48;;;;;;;6.40;3.28;;;;;;;7.91;100.00;98406.25;5054872;28;20113;-86
2021/12/01 10:39:14;;;;;;;10.43;3.63;;;;;;;7.91;100.00;98419.59;5054497;28;20044;-87
2021/12/01 10:41:42;;;;;;;6.07;3.15;;;;;;;7.97;100.00;98406.44;5056874;28;20040;-87
2021/12/01 10:44:13;;;;;;;5.00;3.05;;;;;;;7.98;100.00;98397.41;5058893;28;20032;-86
2021/12/01 10:46:48;;;;;;;10.20;3.92;;;;;;;7.97;100.00;98414.44;5055655;28;20513;-87
2021/12/01 10:49:31;;;;;;;5.68;3.30;;;;;;;7.95;100.00;98413.84;5061131;28;20080;-86
2021/12/01 10:51:57;;;;;;;9.55;3.70;;;;;;;7.90;100.00;98423.28;5059092;28;20089;-87
2021/12/01 10:54:22;;;;;;;11.23;3.97;;;;;;;7.88;100.00;98412.00;5042776;28;20386;-87
2021/12/01 10:57:22;;;;;;;9.98;3.53;;;;;;;7.87;100.00;98410.34;5046571;28;20043;-87
2021/12/01 10:59:52;;;;;;;8.05;2.65;;;;;;;7.83;100.00;98398.44;5043884;28;20064;-87
2021/12/01 11:02:19;;;;;;;7.07;3.65;;;;;;;7.86;100.00;98397.22;5044635;28;20040;-86
2021/12/01 11:04:51;;;;;;;6.13;2.45;;;;;;;7.84;100.00;98404.59;5044895;28;20041;-87
2021/12/01 11:07:25;;;;;;;6.43;2.38;;;;;;;7.84;100.00;98416.09;5026101;28;20040;-86
2021/12/01 11:10:18;;;;;;;5.72;2.25;;;;;;;7.87;100.00;98415.69;5060906;28;20051;-86
2021/12/01 11:12:55;;;;;;;7.55;2.70;;;;;;;7.90;100.00;98409.94;5049084;28;20094;-86
2021/12/01 11:15:29;;;;;;;8.20;2.30;;;;;;;7.93;100.00;98423.91;5044360;28;20055;-86
2021/12/01 11:17:56;;;;;;;7.55;2.80;;;;;;;7.93;100.00;98418.56;5052356;28;20793;-86
2021/12/01 11:20:40;;;;;;;6.47;2.45;;;;;;;7.94;100.00;98409.53;5039447;28;20072;-86
2021/12/01 11:23:17;;;;;;;5.03;2.20;;;;;;;8.02;100.00;98412.81;5044850;28;20107;-87
2021/12/01 11:26:04;;;;;;;6.97;2.47;;;;;;;8.09;100.00;98384.25;5044221;28;20044;-87
2021/12/01 11:28:32;;;;;;;9.50;3.00;;;;;;;8.14;100.00;98405.00;5044342;28;20069;-86
2021/12/01 11:31:00;;;;;;;5.13;1.88;;;;;;;8.07;100.00;98393.50;5055049;28;20049;-87
2021/12/01 11:33:26;;;;;;;7.07;2.20;;;;;;;8.05;100.00;98406.22;5028211;28;20045;-86
2021/12/01 11:35:54;;;;;;;7.78;2.53;;;;;;;8.01;100.00;98407.69;5045539;28;20040;-88
2021/12/01 11:38:20;;;;;;;4.00;1.40;;;;;;;7.93;100.00;98359.81;5046910;28;20063;-88
2021/12/01 11:40:48;;;;;;;2.65;1.00;;;;;;;7.80;100.00;98409.53;5045487;28;20069;-87